sensor_id;sensor_type;location;lat;lon;timestamp;pressure;altitude;pressure_sealevel;temperature;humidity
13478;BME280;12598;62.382;17.344;2023-09-12T00:00:44;100337.19;;;27.54;38.96
13478;BME280;12598;62.382;17.344;2023-09-12T00:01:46;100329.28;;;27.52;39.28
13478;BME280;12598;62.382;17.344;2023-09-12T00:02:48;100324.66;;;27.53;39.03
13478;BME280;12598;62.382;17.344;2023-09-12T00:03:49;100333.88;;;27.52;39.12
13478;BME280;12598;62.382;17.344;2023-09-12T00:04:51;100324.06;;;27.51;39.09
13478;BME280;12598;62.382;17.344;2023-09-12T00:05:54;100325.72;;;27.52;39.13
13478;BME280;12598;62.382;17.344;2023-09-12T00:06:57;100309.06;;;27.42;39.40
13478;BME280;12598;62.382;17.344;2023-09-12T00:07:58;100323.00;;;27.52;39.08
13478;BME280;12598;62.382;17.344;2023-09-12T00:09:00;100321.56;;;27.49;39.06
13478;BME280;12598;62.382;17.344;2023-09-12T00:10:02;100321.34;;;27.51;39.12
13478;BME280;12598;62.382;17.344;2023-09-12T00:11:09;100322.38;;;27.50;39.24
13478;BME280;12598;62.382;17.344;2023-09-12T00:12:14;100307.41;;;27.41;39.05
13478;BME280;12598;62.382;17.344;2023-09-12T00:13:16;100321.56;;;27.49;39.07
13478;BME280;12598;62.382;17.344;2023-09-12T00:14:18;100324.91;;;27.51;39.32
13478;BME280;12598;62.382;17.344;2023-09-12T00:15:20;100319.91;;;27.48;38.99
13478;BME280;12598;62.382;17.344;2023-09-12T00:16:22;100322.38;;;27.50;39.07
13478;BME280;12598;62.382;17.344;2023-09-12T00:17:24;100316.34;;;27.48;39.19
13478;BME280;12598;62.382;17.344;2023-09-12T00:18:28;100323.44;;;27.49;39.16
13478;BME280;12598;62.382;17.344;2023-09-12T00:19:30;100312.59;;;27.42;39.35
13478;BME280;12598;62.382;17.344;2023-09-12T00:20:32;100323.44;;;27.49;39.09
13478;BME280;12598;62.382;17.344;2023-09-12T00:21:34;100320.72;;;27.49;39.34
13478;BME280;12598;62.382;17.344;2023-09-12T00:22:36;100319.06;;;27.48;39.19
13478;BME280;12598;62.382;17.344;2023-09-12T00:23:38;100320.72;;;27.49;39.61
13478;BME280;12598;62.382;17.344;2023-09-12T00:24:40;100316.34;;;27.48;39.33
13478;BME280;12598;62.382;17.344;2023-09-12T00:25:42;100299.28;;;27.41;38.99
13478;BME280;12598;62.382;17.344;2023-09-12T00:26:43;100323.69;;;27.47;39.28
13478;BME280;12598;62.382;17.344;2023-09-12T00:27:46;100324.94;;;27.45;39.54
13478;BME280;12598;62.382;17.344;2023-09-12T00:28:47;100319.94;;;27.42;39.43
13478;BME280;12598;62.382;17.344;2023-09-12T00:29:50;100327.44;;;27.46;39.16
13478;BME280;12598;62.382;17.344;2023-09-12T00:30:52;100324.13;;;27.44;39.38
13478;BME280;12598;62.382;17.344;2023-09-12T00:31:54;100325.38;;;27.42;39.53
13478;BME280;12598;62.382;17.344;2023-09-12T00:32:56;100325.78;;;27.45;39.20
13478;BME280;12598;62.382;17.344;2023-09-12T00:33:59;100324.53;;;27.41;39.10
13478;BME280;12598;62.382;17.344;2023-09-12T00:35:01;100335.78;;;27.45;39.25
13478;BME280;12598;62.382;17.344;2023-09-12T00:36:03;100323.72;;;27.41;39.41
13478;BME280;12598;62.382;17.344;2023-09-12T00:37:05;100325.78;;;27.45;39.33
13478;BME280;12598;62.382;17.344;2023-09-12T00:38:08;100325.56;;;27.40;39.49
13478;BME280;12598;62.382;17.344;2023-09-12T00:39:10;100331.22;;;27.45;39.06
13478;BME280;12598;62.382;17.344;2023-09-12T00:40:12;100328.69;;;27.44;39.07
13478;BME280;12598;62.382;17.344;2023-09-12T00:41:14;100339.56;;;27.44;39.37
13478;BME280;12598;62.382;17.344;2023-09-12T00:42:16;100333.31;;;27.43;39.22
13478;BME280;12598;62.382;17.344;2023-09-12T00:43:18;100327.03;;;27.43;39.32
13478;BME280;12598;62.382;17.344;2023-09-12T00:44:19;100338.75;;;27.43;39.23
13478;BME280;12598;62.382;17.344;2023-09-12T00:45:21;100318.13;;;27.29;39.21
13478;BME280;12598;62.382;17.344;2023-09-12T00:46:24;100337.50;;;27.39;39.31
13478;BME280;12598;62.382;17.344;2023-09-12T00:47:27;100341.66;;;27.42;39.07
13478;BME280;12598;62.382;17.344;2023-09-12T00:48:30;100348.56;;;27.44;39.23
13478;BME280;12598;62.382;17.344;2023-09-12T00:49:33;100341.88;;;27.40;39.35
13478;BME280;12598;62.382;17.344;2023-09-12T00:50:36;100332.50;;;27.36;39.02
13478;BME280;12598;62.382;17.344;2023-09-12T00:51:38;100348.75;;;27.43;39.24
13478;BME280;12598;62.382;17.344;2023-09-12T00:52:42;100336.06;;;27.37;39.22
13478;BME280;12598;62.382;17.344;2023-09-12T00:53:44;100336.66;;;27.39;39.31
13478;BME280;12598;62.382;17.344;2023-09-12T00:54:46;100340.00;;;27.41;39.15
13478;BME280;12598;62.382;17.344;2023-09-12T00:55:54;100344.59;;;27.40;39.22
13478;BME280;12598;62.382;17.344;2023-09-12T00:56:58;100342.28;;;27.44;39.29
13478;BME280;12598;62.382;17.344;2023-09-12T00:58:01;100345.19;;;27.42;39.20
13478;BME280;12598;62.382;17.344;2023-09-12T00:59:04;100345.44;;;27.41;39.20
13478;BME280;12598;62.382;17.344;2023-09-12T01:00:07;100344.38;;;27.42;39.23
13478;BME280;12598;62.382;17.344;2023-09-12T01:01:13;100343.78;;;27.40;39.27
13478;BME280;12598;62.382;17.344;2023-09-12T01:02:15;100341.88;;;27.40;39.51
13478;BME280;12598;62.382;17.344;2023-09-12T01:03:18;100339.16;;;27.40;39.32
13478;BME280;12598;62.382;17.344;2023-09-12T01:04:20;100343.78;;;27.40;39.38
13478;BME280;12598;62.382;17.344;2023-09-12T01:05:35;100341.47;;;27.43;39.32
13478;BME280;12598;62.382;17.344;2023-09-12T01:06:37;100338.94;;;27.42;39.44
13478;BME280;12598;62.382;17.344;2023-09-12T01:07:41;100338.34;;;27.40;39.24
13478;BME280;12598;62.382;17.344;2023-09-12T01:08:44;100331.25;;;27.39;39.43
13478;BME280;12598;62.382;17.344;2023-09-12T01:09:45;100336.25;;;27.35;39.19
13478;BME280;12598;62.382;17.344;2023-09-12T01:10:47;100336.66;;;27.39;39.43
13478;BME280;12598;62.382;17.344;2023-09-12T01:11:51;100342.91;;;27.39;39.37
13478;BME280;12598;62.382;17.344;2023-09-12T01:12:53;100341.25;;;27.38;39.31
13478;BME280;12598;62.382;17.344;2023-09-12T01:13:54;100344.81;;;27.39;39.42
13478;BME280;12598;62.382;17.344;2023-09-12T01:14:56;100340.03;;;27.34;39.41
13478;BME280;12598;62.382;17.344;2023-09-12T01:15:58;100335.44;;;27.35;39.52
13478;BME280;12598;62.382;17.344;2023-09-12T01:17:00;100342.13;;;27.32;39.29
13478;BME280;12598;62.382;17.344;2023-09-12T01:18:05;100341.69;;;27.35;39.53
13478;BME280;12598;62.382;17.344;2023-09-12T01:19:08;100344.22;;;27.37;39.50
13478;BME280;12598;62.382;17.344;2023-09-12T01:20:21;100342.31;;;27.37;39.53
13478;BME280;12598;62.382;17.344;2023-09-12T01:26:59;100334.09;;;27.50;39.22
13478;BME280;12598;62.382;17.344;2023-09-12T01:28:08;100340.78;;;27.48;39.39
13478;BME280;12598;62.382;17.344;2023-09-12T01:29:12;100339.56;;;27.44;39.20
13478;BME280;12598;62.382;17.344;2023-09-12T01:30:18;100337.28;;;27.41;39.52
13478;BME280;12598;62.382;17.344;2023-09-12T01:31:23;100336.88;;;27.37;39.57
13478;BME280;12598;62.382;17.344;2023-09-12T01:32:26;100338.78;;;27.37;39.64
13478;BME280;12598;62.382;17.344;2023-09-12T01:33:29;100342.31;;;27.37;39.58
13478;BME280;12598;62.382;17.344;2023-09-12T01:34:31;100338.78;;;27.37;39.62
13478;BME280;12598;62.382;17.344;2023-09-12T01:35:33;100342.53;;;27.36;39.41
13478;BME280;12598;62.382;17.344;2023-09-12T01:36:34;100336.06;;;27.37;39.64
13478;BME280;12598;62.382;17.344;2023-09-12T01:37:37;100336.25;;;27.35;39.56
13478;BME280;12598;62.382;17.344;2023-09-12T01:38:39;100332.31;;;27.31;39.52
13478;BME280;12598;62.382;17.344;2023-09-12T01:39:41;100340.03;;;27.34;39.67
13478;BME280;12598;62.382;17.344;2023-09-12T01:40:49;100339.22;;;27.34;39.71
13478;BME280;12598;62.382;17.344;2023-09-12T01:41:52;100330.47;;;27.32;39.54
13478;BME280;12598;62.382;17.344;2023-09-12T01:42:56;100342.53;;;27.36;39.71
13478;BME280;12598;62.382;17.344;2023-09-12T01:43:59;100340.66;;;27.36;39.63
13478;BME280;12598;62.382;17.344;2023-09-12T01:45:04;100327.75;;;27.32;39.63
13478;BME280;12598;62.382;17.344;2023-09-12T01:46:06;100316.09;;;27.25;39.72
13478;BME280;12598;62.382;17.344;2023-09-12T01:47:10;100340.03;;;27.34;39.64
13478;BME280;12598;62.382;17.344;2023-09-12T01:48:13;100338.16;;;27.35;39.82
13478;BME280;12598;62.382;17.344;2023-09-12T01:49:21;100337.09;;;27.36;39.59
13478;BME280;12598;62.382;17.344;2023-09-12T01:50:25;100331.50;;;27.31;39.68
13478;BME280;12598;62.382;17.344;2023-09-12T01:51:28;100340.88;;;27.35;39.67
13478;BME280;12598;62.382;17.344;2023-09-12T01:52:32;100329.00;;;27.29;39.46
13478;BME280;12598;62.382;17.344;2023-09-12T01:53:34;100327.94;;;27.30;39.68
13478;BME280;12598;62.382;17.344;2023-09-12T01:54:37;100335.44;;;27.35;39.32
13478;BME280;12598;62.382;17.344;2023-09-12T01:55:42;100326.50;;;27.28;39.47
13478;BME280;12598;62.382;17.344;2023-09-12T01:56:44;100331.06;;;27.34;39.52
13478;BME280;12598;62.382;17.344;2023-09-12T01:57:46;100340.88;;;27.35;39.26
13478;BME280;12598;62.382;17.344;2023-09-12T01:58:49;100341.69;;;27.35;39.55
13478;BME280;12598;62.382;17.344;2023-09-12T01:59:51;100331.28;;;27.32;39.37
13478;BME280;12598;62.382;17.344;2023-09-12T02:00:53;100339.22;;;27.34;39.53
13478;BME280;12598;62.382;17.344;2023-09-12T02:01:56;100340.03;;;27.34;39.76
13478;BME280;12598;62.382;17.344;2023-09-12T02:02:59;100338.16;;;27.35;39.86
13478;BME280;12598;62.382;17.344;2023-09-12T02:04:01;100338.97;;;27.35;39.50
13478;BME280;12598;62.382;17.344;2023-09-12T02:05:17;100336.06;;;27.37;39.46
13478;BME280;12598;62.382;17.344;2023-09-12T02:06:20;100336.66;;;27.39;39.46
13478;BME280;12598;62.382;17.344;2023-09-12T02:07:23;100334.41;;;27.36;39.32
13478;BME280;12598;62.382;17.344;2023-09-12T02:08:25;100330.84;;;27.35;39.54
13478;BME280;12598;62.382;17.344;2023-09-12T02:09:28;100327.50;;;27.33;39.29
13478;BME280;12598;62.382;17.344;2023-09-12T02:10:29;100331.06;;;27.34;39.38
13478;BME280;12598;62.382;17.344;2023-09-12T02:11:31;100331.06;;;27.34;39.66
13478;BME280;12598;62.382;17.344;2023-09-12T02:12:33;100325.84;;;27.32;39.48
13478;BME280;12598;62.382;17.344;2023-09-12T02:13:35;100322.13;;;27.27;39.86
13478;BME280;12598;62.382;17.344;2023-09-12T02:14:37;100331.28;;;27.32;39.61
13478;BME280;12598;62.382;17.344;2023-09-12T02:15:39;100325.03;;;27.32;39.70
13478;BME280;12598;62.382;17.344;2023-09-12T02:16:41;100325.03;;;27.32;39.63
13478;BME280;12598;62.382;17.344;2023-09-12T02:17:45;100323.81;;;27.28;39.50
13478;BME280;12598;62.382;17.344;2023-09-12T02:18:49;100326.69;;;27.33;39.44
13478;BME280;12598;62.382;17.344;2023-09-12T02:19:51;100319.59;;;27.32;39.25
13478;BME280;12598;62.382;17.344;2023-09-12T02:20:53;100318.75;;;27.31;39.63
13478;BME280;12598;62.382;17.344;2023-09-12T02:21:54;100304.38;;;27.24;39.64
13478;BME280;12598;62.382;17.344;2023-09-12T02:22:56;100314.16;;;27.32;39.70
13478;BME280;12598;62.382;17.344;2023-09-12T02:23:58;100312.50;;;27.31;39.75
13478;BME280;12598;62.382;17.344;2023-09-12T02:25:00;100302.94;;;27.22;39.66
13478;BME280;12598;62.382;17.344;2023-09-12T02:26:01;100315.22;;;27.31;39.72
13478;BME280;12598;62.382;17.344;2023-09-12T02:27:04;100308.56;;;27.27;40.16
13478;BME280;12598;62.382;17.344;2023-09-12T02:28:06;100302.44;;;27.31;39.71
13478;BME280;12598;62.382;17.344;2023-09-12T02:29:07;100306.22;;;27.30;39.98
13478;BME280;12598;62.382;17.344;2023-09-12T02:30:11;100298.31;;;27.29;39.60
13478;BME280;12598;62.382;17.344;2023-09-12T02:31:13;100304.78;;;27.28;39.60
13478;BME280;12598;62.382;17.344;2023-09-12T02:32:15;100300.78;;;27.30;39.77
13478;BME280;12598;62.382;17.344;2023-09-12T02:33:17;100295.81;;;27.27;39.61
13478;BME280;12598;62.382;17.344;2023-09-12T02:34:19;100294.53;;;27.30;39.68
13478;BME280;12598;62.382;17.344;2023-09-12T02:35:20;100299.13;;;27.29;39.53
13478;BME280;12598;62.382;17.344;2023-09-12T02:36:22;100294.53;;;27.30;39.41
13478;BME280;12598;62.382;17.344;2023-09-12T02:37:24;100296.41;;;27.29;39.96
13478;BME280;12598;62.382;17.344;2023-09-12T02:38:26;100292.28;;;27.27;39.54
13478;BME280;12598;62.382;17.344;2023-09-12T02:39:28;100297.47;;;27.28;39.53
13478;BME280;12598;62.382;17.344;2023-09-12T02:40:30;100297.25;;;27.30;39.64
13478;BME280;12598;62.382;17.344;2023-09-12T02:41:31;100287.03;;;27.25;39.69
13478;BME280;12598;62.382;17.344;2023-09-12T02:42:33;100295.59;;;27.29;39.64
13478;BME280;12598;62.382;17.344;2023-09-12T02:43:35;100275.00;;;27.15;39.64
13478;BME280;12598;62.382;17.344;2023-09-12T02:44:37;100281.22;;;27.22;39.52
13478;BME280;12598;62.382;17.344;2023-09-12T02:45:39;100286.66;;;27.22;39.63
13478;BME280;12598;62.382;17.344;2023-09-12T02:46:41;100291.84;;;27.23;39.73
13478;BME280;12598;62.382;17.344;2023-09-12T02:47:43;100294.81;;;27.22;39.77
13478;BME280;12598;62.382;17.344;2023-09-12T02:48:45;100302.06;;;27.28;39.23
13478;BME280;12598;62.382;17.344;2023-09-12T02:49:47;100298.31;;;27.29;39.82
13478;BME280;12598;62.382;17.344;2023-09-12T02:50:49;100294.97;;;27.27;39.61
13478;BME280;12598;62.382;17.344;2023-09-12T02:51:50;100302.06;;;27.28;39.65
13478;BME280;12598;62.382;17.344;2023-09-12T02:52:52;100283.31;;;27.20;39.74
13478;BME280;12598;62.382;17.344;2023-09-12T02:53:55;100285.81;;;27.22;40.01
13478;BME280;12598;62.382;17.344;2023-09-12T02:54:57;100302.06;;;27.28;39.68
13478;BME280;12598;62.382;17.344;2023-09-12T02:55:58;100301.22;;;27.27;39.78
13478;BME280;12598;62.382;17.344;2023-09-12T02:57:00;100291.25;;;27.22;39.90
13478;BME280;12598;62.382;17.344;2023-09-12T02:58:02;100300.00;;;27.23;39.54
13478;BME280;12598;62.382;17.344;2023-09-12T02:59:04;100299.56;;;27.26;39.75
13478;BME280;12598;62.382;17.344;2023-09-12T03:00:07;100300.41;;;27.27;39.83
13478;BME280;12598;62.382;17.344;2023-09-12T03:01:14;100297.91;;;27.25;39.76
13478;BME280;12598;62.382;17.344;2023-09-12T03:02:16;100304.78;;;27.28;39.54
13478;BME280;12598;62.382;17.344;2023-09-12T03:03:18;100300.41;;;27.27;39.63
13478;BME280;12598;62.382;17.344;2023-09-12T03:04:20;100296.84;;;27.26;39.82
13478;BME280;12598;62.382;17.344;2023-09-12T03:05:22;100295.19;;;27.25;39.68
13478;BME280;12598;62.382;17.344;2023-09-12T03:06:24;100291.66;;;27.25;39.94
13478;BME280;12598;62.382;17.344;2023-09-12T03:07:26;100297.09;;;27.25;39.67
13478;BME280;12598;62.382;17.344;2023-09-12T03:08:28;100295.41;;;27.24;39.76
13478;BME280;12598;62.382;17.344;2023-09-12T03:09:29;100283.75;;;27.17;39.64
13478;BME280;12598;62.382;17.344;2023-09-12T03:10:31;100287.06;;;27.19;39.61
13478;BME280;12598;62.382;17.344;2023-09-12T03:11:33;100291.84;;;27.23;39.85
13478;BME280;12598;62.382;17.344;2023-09-12T03:12:35;100292.91;;;27.23;39.79
13478;BME280;12598;62.382;17.344;2023-09-12T03:13:40;100300.84;;;27.24;39.59
13478;BME280;12598;62.382;17.344;2023-09-12T03:14:42;100297.28;;;27.23;39.72
13478;BME280;12598;62.382;17.344;2023-09-12T03:15:44;100287.06;;;27.19;39.84
13478;BME280;12598;62.382;17.344;2023-09-12T03:16:46;100308.16;;;27.23;39.59
13478;BME280;12598;62.382;17.344;2023-09-12T03:17:48;100299.59;;;27.20;39.89
13478;BME280;12598;62.382;17.344;2023-09-12T03:18:50;100301.91;;;27.23;39.73
13478;BME280;12598;62.382;17.344;2023-09-12T03:19:52;100301.25;;;27.21;39.74
13478;BME280;12598;62.382;17.344;2023-09-12T03:20:54;100302.94;;;27.22;39.55
13478;BME280;12598;62.382;17.344;2023-09-12T03:21:56;100295.81;;;27.21;39.70
13478;BME280;12598;62.382;17.344;2023-09-12T03:22:58;100300.25;;;27.22;39.89
13478;BME280;12598;62.382;17.344;2023-09-12T03:24:00;100293.13;;;27.21;39.69
13478;BME280;12598;62.382;17.344;2023-09-12T03:25:02;100289.59;;;27.21;39.65
13478;BME280;12598;62.382;17.344;2023-09-12T03:26:05;100294.16;;;27.20;39.60
13478;BME280;12598;62.382;17.344;2023-09-12T03:27:08;100281.03;;;27.17;39.67
13478;BME280;12598;62.382;17.344;2023-09-12T03:28:10;100301.25;;;27.21;39.63
13478;BME280;12598;62.382;17.344;2023-09-12T03:29:12;100294.16;;;27.20;39.64
13478;BME280;12598;62.382;17.344;2023-09-12T03:30:14;100290.84;;;27.18;39.79
13478;BME280;12598;62.382;17.344;2023-09-12T03:31:16;100298.53;;;27.21;39.68
13478;BME280;12598;62.382;17.344;2023-09-12T03:32:18;100291.44;;;27.20;39.79
13478;BME280;12598;62.382;17.344;2023-09-12T03:33:21;100282.06;;;27.16;39.54
13478;BME280;12598;62.382;17.344;2023-09-12T03:34:22;100265.03;;;27.03;39.87
13478;BME280;12598;62.382;17.344;2023-09-12T03:35:25;100296.06;;;27.20;39.76
13478;BME280;12598;62.382;17.344;2023-09-12T03:36:27;100296.88;;;27.20;39.65
13478;BME280;12598;62.382;17.344;2023-09-12T03:37:29;100296.88;;;27.20;39.67
13478;BME280;12598;62.382;17.344;2023-09-12T03:38:31;100297.94;;;27.19;39.96
13478;BME280;12598;62.382;17.344;2023-09-12T03:39:32;100297.13;;;27.19;39.86
13478;BME280;12598;62.382;17.344;2023-09-12T03:40:34;100297.13;;;27.19;39.73
13478;BME280;12598;62.382;17.344;2023-09-12T03:41:36;100296.25;;;27.18;39.92
13478;BME280;12598;62.382;17.344;2023-09-12T03:42:38;100290.84;;;27.18;39.91
13478;BME280;12598;62.382;17.344;2023-09-12T03:43:44;100294.16;;;27.20;39.89
13478;BME280;12598;62.382;17.344;2023-09-12T03:44:46;100283.97;;;27.16;40.02
13478;BME280;12598;62.382;17.344;2023-09-12T03:45:47;100289.78;;;27.19;39.86
13478;BME280;12598;62.382;17.344;2023-09-12T03:46:50;100288.13;;;27.18;39.88
13478;BME280;12598;62.382;17.344;2023-09-12T03:47:52;100292.13;;;27.16;39.86
13478;BME280;12598;62.382;17.344;2023-09-12T03:48:55;100285.41;;;27.18;39.92
13478;BME280;12598;62.382;17.344;2023-09-12T03:49:57;100290.84;;;27.18;39.92
13478;BME280;12598;62.382;17.344;2023-09-12T03:50:59;100296.25;;;27.18;40.02
13478;BME280;12598;62.382;17.344;2023-09-12T03:52:01;100290.84;;;27.18;39.85
13478;BME280;12598;62.382;17.344;2023-09-12T03:53:03;100290.84;;;27.18;40.09
13478;BME280;12598;62.382;17.344;2023-09-12T03:54:04;100284.19;;;27.14;39.89
13478;BME280;12598;62.382;17.344;2023-09-12T03:55:07;100294.59;;;27.17;40.00
13478;BME280;12598;62.382;17.344;2023-09-12T03:56:09;100294.59;;;27.17;40.16
13478;BME280;12598;62.382;17.344;2023-09-12T03:57:14;100292.50;;;27.19;39.92
13478;BME280;12598;62.382;17.344;2023-09-12T03:58:16;100298.16;;;27.18;40.04
13478;BME280;12598;62.382;17.344;2023-09-12T03:59:18;100289.16;;;27.17;39.91
13478;BME280;12598;62.382;17.344;2023-09-12T04:00:20;100289.16;;;27.17;39.84
13478;BME280;12598;62.382;17.344;2023-09-12T04:01:23;100290.22;;;27.16;39.92
13478;BME280;12598;62.382;17.344;2023-09-12T04:02:25;100284.63;;;27.11;39.73
13478;BME280;12598;62.382;17.344;2023-09-12T04:03:27;100285.63;;;27.17;39.91
13478;BME280;12598;62.382;17.344;2023-09-12T04:04:29;100289.16;;;27.17;39.90
13478;BME280;12598;62.382;17.344;2023-09-12T04:05:31;100289.16;;;27.17;39.84
13478;BME280;12598;62.382;17.344;2023-09-12T04:06:33;100283.75;;;27.17;39.69
13478;BME280;12598;62.382;17.344;2023-09-12T04:07:35;100284.78;;;27.16;40.00
13478;BME280;12598;62.382;17.344;2023-09-12T04:08:37;100286.69;;;27.16;39.88
13478;BME280;12598;62.382;17.344;2023-09-12T04:09:39;100275.44;;;27.12;39.91
13478;BME280;12598;62.382;17.344;2023-09-12T04:10:42;100274.16;;;27.15;40.01
13478;BME280;12598;62.382;17.344;2023-09-12T04:11:43;100279.38;;;27.16;40.09
13478;BME280;12598;62.382;17.344;2023-09-12T04:12:48;100276.66;;;27.16;39.97
13478;BME280;12598;62.382;17.344;2023-09-12T04:13:50;100273.94;;;27.16;40.10
13478;BME280;12598;62.382;17.344;2023-09-12T04:14:53;100260.22;;;27.05;39.89
13478;BME280;12598;62.382;17.344;2023-09-12T04:15:56;100279.38;;;27.16;40.04
13478;BME280;12598;62.382;17.344;2023-09-12T04:16:58;100281.03;;;27.17;39.89
13478;BME280;12598;62.382;17.344;2023-09-12T04:18:01;100270.16;;;27.17;39.98
13478;BME280;12598;62.382;17.344;2023-09-12T04:19:03;100268.50;;;27.16;39.82
13478;BME280;12598;62.382;17.344;2023-09-12T04:20:06;100264.56;;;27.12;39.74
13478;BME280;12598;62.382;17.344;2023-09-12T04:21:08;100266.66;;;27.10;40.05
13478;BME280;12598;62.382;17.344;2023-09-12T04:22:11;100276.66;;;27.16;39.87
13478;BME280;12598;62.382;17.344;2023-09-12T04:23:13;100275.00;;;27.15;39.88
13478;BME280;12598;62.382;17.344;2023-09-12T04:24:15;100272.28;;;27.15;39.99
13478;BME280;12598;62.382;17.344;2023-09-12T04:25:19;100266.84;;;27.15;39.86
13478;BME280;12598;62.382;17.344;2023-09-12T04:26:22;100252.88;;;27.05;39.96
13478;BME280;12598;62.382;17.344;2023-09-12T04:27:24;100263.50;;;27.13;39.55
13478;BME280;12598;62.382;17.344;2023-09-12T04:28:26;100253.75;;;27.06;39.85
13478;BME280;12598;62.382;17.344;2023-09-12T04:29:28;100236.88;;;26.97;39.90
13478;BME280;12598;62.382;17.344;2023-09-12T04:30:30;100278.75;;;27.14;39.92
13478;BME280;12598;62.382;17.344;2023-09-12T04:31:32;100266.22;;;27.13;39.83
13478;BME280;12598;62.382;17.344;2023-09-12T04:32:34;100265.00;;;27.09;39.63
13478;BME280;12598;62.382;17.344;2023-09-12T04:33:36;100271.03;;;27.11;40.09
13478;BME280;12598;62.382;17.344;2023-09-12T04:34:41;100257.91;;;27.08;39.67
13478;BME280;12598;62.382;17.344;2023-09-12T04:35:43;100262.28;;;27.09;39.87
13478;BME280;12598;62.382;17.344;2023-09-12T04:36:45;100267.09;;;27.14;39.62
13478;BME280;12598;62.382;17.344;2023-09-12T04:37:47;100256.66;;;27.11;39.75
13478;BME280;12598;62.382;17.344;2023-09-12T04:38:49;100252.91;;;27.12;39.80
13478;BME280;12598;62.382;17.344;2023-09-12T04:39:51;100239.56;;;27.04;39.78
13478;BME280;12598;62.382;17.344;2023-09-12T04:41:00;100257.47;;;27.11;39.94
13478;BME280;12598;62.382;17.344;2023-09-12T04:42:06;100259.75;;;27.14;39.82
13478;BME280;12598;62.382;17.344;2023-09-12T04:43:08;100253.34;;;27.09;39.87
13478;BME280;12598;62.382;17.344;2023-09-12T04:44:11;100256.03;;;27.09;39.78
13478;BME280;12598;62.382;17.344;2023-09-12T04:45:13;100249.56;;;27.03;39.81
13478;BME280;12598;62.382;17.344;2023-09-12T04:46:15;100262.91;;;27.11;39.88
13478;BME280;12598;62.382;17.344;2023-09-12T04:47:17;100265.84;;;27.10;39.64
13478;BME280;12598;62.382;17.344;2023-09-12T04:48:19;100261.25;;;27.10;39.73
13478;BME280;12598;62.382;17.344;2023-09-12T04:49:21;100253.94;;;27.11;39.90
13478;BME280;12598;62.382;17.344;2023-09-12T04:50:23;100265.00;;;27.09;40.01
13478;BME280;12598;62.382;17.344;2023-09-12T04:51:25;100270.44;;;27.09;39.92
13478;BME280;12598;62.382;17.344;2023-09-12T04:52:28;100259.56;;;27.09;39.89
13478;BME280;12598;62.382;17.344;2023-09-12T04:53:34;100253.34;;;27.09;39.98
13478;BME280;12598;62.382;17.344;2023-09-12T04:54:37;100265.63;;;27.11;40.06
13478;BME280;12598;62.382;17.344;2023-09-12T04:55:40;100263.97;;;27.10;40.08
13478;BME280;12598;62.382;17.344;2023-09-12T04:56:42;100271.28;;;27.10;40.20
13478;BME280;12598;62.382;17.344;2023-09-12T04:57:44;100262.28;;;27.09;40.15
13478;BME280;12598;62.382;17.344;2023-09-12T04:58:46;100265.84;;;27.10;40.19
13478;BME280;12598;62.382;17.344;2023-09-12T04:59:48;100264.19;;;27.09;40.14
13478;BME280;12598;62.382;17.344;2023-09-12T05:00:50;100260.63;;;27.08;40.24
13478;BME280;12598;62.382;17.344;2023-09-12T05:01:52;100257.91;;;27.08;40.29
13478;BME280;12598;62.382;17.344;2023-09-12T05:02:54;100250.63;;;27.02;40.06
13478;BME280;12598;62.382;17.344;2023-09-12T05:03:56;100261.47;;;27.09;40.00
13478;BME280;12598;62.382;17.344;2023-09-12T05:04:58;100252.88;;;27.05;40.31
13478;BME280;12598;62.382;17.344;2023-09-12T05:06:00;100265.22;;;27.08;40.33
13478;BME280;12598;62.382;17.344;2023-09-12T05:07:02;100263.34;;;27.08;40.23
13478;BME280;12598;62.382;17.344;2023-09-12T05:08:04;100270.44;;;27.09;40.37
13478;BME280;12598;62.382;17.344;2023-09-12T05:09:07;100253.31;;;27.02;40.49
13478;BME280;12598;62.382;17.344;2023-09-12T05:10:10;100265.00;;;27.09;40.22
13478;BME280;12598;62.382;17.344;2023-09-12T05:11:12;100266.66;;;27.10;39.80
13478;BME280;12598;62.382;17.344;2023-09-12T05:12:14;100260.81;;;27.13;40.25
13478;BME280;12598;62.382;17.344;2023-09-12T05:13:16;100261.41;;;27.15;40.43
13478;BME280;12598;62.382;17.344;2023-09-12T05:14:18;100247.47;;;27.12;40.28
13478;BME280;12598;62.382;17.344;2023-09-12T05:15:21;100249.06;;;27.19;40.20
13478;BME280;12598;62.382;17.344;2023-09-12T05:16:23;100252.38;;;27.21;40.28
13478;BME280;12598;62.382;17.344;2023-09-12T05:17:25;100260.13;;;27.24;40.06
13478;BME280;12598;62.382;17.344;2023-09-12T05:18:27;100263.91;;;27.23;39.98
13478;BME280;12598;62.382;17.344;2023-09-12T05:19:30;100258.63;;;27.28;40.06
13478;BME280;12598;62.382;17.344;2023-09-12T05:20:32;100257.34;;;27.30;40.10
13478;BME280;12598;62.382;17.344;2023-09-12T05:21:34;100260.47;;;27.34;39.94
13478;BME280;12598;62.382;17.344;2023-09-12T05:22:36;100254.81;;;27.35;39.57
13478;BME280;12598;62.382;17.344;2023-09-12T05:23:38;100252.25;;;27.40;39.65
13478;BME280;12598;62.382;17.344;2023-09-12T05:24:40;100249.34;;;27.42;39.72
13478;BME280;12598;62.382;17.344;2023-09-12T05:25:41;100243.06;;;27.41;39.32
13478;BME280;12598;62.382;17.344;2023-09-12T05:26:43;100244.91;;;27.47;39.69
13478;BME280;12598;62.382;17.344;2023-09-12T05:27:46;100249.66;;;27.52;39.70
13478;BME280;12598;62.382;17.344;2023-09-12T05:28:48;100243.41;;;27.51;39.60